sensor_id;sensor_type;location;lat;lon;timestamp;pressure;altitude;pressure_sealevel;temperature;humidity
48530;BME280;34927;37.302;-121.982;2023-02-08T00:00:42;101872.0;;;23.21;30.81
48530;BME280;34927;37.302;-121.982;2023-02-08T00:01:46;101875.0;;;23.28;30.71
48530;BME280;34927;37.302;-121.982;2023-02-08T00:02:51;101875.0;;;23.28;30.78
48530;BME280;34927;37.302;-121.982;2023-02-08T00:03:57;101875.0;;;23.20;30.99
48530;BME280;34927;37.302;-121.982;2023-02-08T00:05:01;101873.0;;;23.12;31.08
48530;BME280;34927;37.302;-121.982;2023-02-08T00:06:07;101871.0;;;23.15;31.09
48530;BME280;34927;37.302;-121.982;2023-02-08T00:07:12;101867.0;;;23.08;31.15
48530;BME280;34927;37.302;-121.982;2023-02-08T00:08:16;101864.0;;;23.12;31.10
48530;BME280;34927;37.302;-121.982;2023-02-08T00:09:22;101864.0;;;23.09;31.16
48530;BME280;34927;37.302;-121.982;2023-02-08T00:10:26;101862.0;;;23.09;31.14
48530;BME280;34927;37.302;-121.982;2023-02-08T00:11:32;101862.0;;;23.11;31.15
48530;BME280;34927;37.302;-121.982;2023-02-08T00:12:37;101861.0;;;23.11;31.18
48530;BME280;34927;37.302;-121.982;2023-02-08T00:13:41;101863.0;;;23.13;31.13
48530;BME280;34927;37.302;-121.982;2023-02-08T00:14:46;101861.0;;;23.13;31.09
48530;BME280;34927;37.302;-121.982;2023-02-08T00:15:53;101860.0;;;23.14;31.08
48530;BME280;34927;37.302;-121.982;2023-02-08T00:16:56;101860.0;;;23.15;31.11
48530;BME280;34927;37.302;-121.982;2023-02-08T00:18:01;101862.0;;;23.17;31.10
48530;BME280;34927;37.302;-121.982;2023-02-08T00:19:06;101863.0;;;23.19;31.10
48530;BME280;34927;37.302;-121.982;2023-02-08T00:20:12;101863.0;;;23.20;31.07
48530;BME280;34927;37.302;-121.982;2023-02-08T00:21:18;101861.0;;;23.18;31.06
48530;BME280;34927;37.302;-121.982;2023-02-08T00:22:22;101861.0;;;23.19;31.12
48530;BME280;34927;37.302;-121.982;2023-02-08T00:23:27;101860.0;;;23.17;31.17
48530;BME280;34927;37.302;-121.982;2023-02-08T00:24:32;101860.0;;;23.22;31.11
48530;BME280;34927;37.302;-121.982;2023-02-08T00:25:36;101861.0;;;23.18;31.14
48530;BME280;34927;37.302;-121.982;2023-02-08T00:26:43;101860.0;;;23.23;31.10
48530;BME280;34927;37.302;-121.982;2023-02-08T00:27:47;101860.0;;;23.19;31.14
48530;BME280;34927;37.302;-121.982;2023-02-08T00:28:51;101862.0;;;23.20;31.16
48530;BME280;34927;37.302;-121.982;2023-02-08T00:29:57;101857.0;;;23.21;31.19
48530;BME280;34927;37.302;-121.982;2023-02-08T00:31:02;101856.0;;;23.21;31.20
48530;BME280;34927;37.302;-121.982;2023-02-08T00:32:07;101855.0;;;23.17;31.21
48530;BME280;34927;37.302;-121.982;2023-02-08T00:33:12;101853.0;;;23.19;31.24
48530;BME280;34927;37.302;-121.982;2023-02-08T00:34:17;101851.0;;;23.19;31.26
48530;BME280;34927;37.302;-121.982;2023-02-08T00:35:21;101850.0;;;23.22;31.25
48530;BME280;34927;37.302;-121.982;2023-02-08T00:36:27;101848.0;;;23.16;31.30
48530;BME280;34927;37.302;-121.982;2023-02-08T00:37:32;101846.0;;;23.14;31.38
48530;BME280;34927;37.302;-121.982;2023-02-08T00:38:37;101847.0;;;23.16;31.30
48530;BME280;34927;37.302;-121.982;2023-02-08T00:39:41;101847.0;;;23.17;31.24
48530;BME280;34927;37.302;-121.982;2023-02-08T00:40:47;101849.0;;;23.14;31.27
48530;BME280;34927;37.302;-121.982;2023-02-08T00:41:52;101849.0;;;23.15;31.30
48530;BME280;34927;37.302;-121.982;2023-02-08T00:42:56;101850.0;;;23.12;31.33
48530;BME280;34927;37.302;-121.982;2023-02-08T00:44:02;101850.0;;;23.12;31.36
48530;BME280;34927;37.302;-121.982;2023-02-08T00:45:07;101849.0;;;23.15;31.30
48530;BME280;34927;37.302;-121.982;2023-02-08T00:46:11;101849.0;;;23.12;31.26
48530;BME280;34927;37.302;-121.982;2023-02-08T00:47:17;101847.0;;;23.12;31.22
48530;BME280;34927;37.302;-121.982;2023-02-08T00:48:21;101846.0;;;23.09;31.32
48530;BME280;34927;37.302;-121.982;2023-02-08T00:49:26;101845.0;;;23.07;31.31
48530;BME280;34927;37.302;-121.982;2023-02-08T00:50:31;101847.0;;;23.09;31.34
48530;BME280;34927;37.302;-121.982;2023-02-08T00:51:37;101852.0;;;23.07;31.35
48530;BME280;34927;37.302;-121.982;2023-02-08T00:52:41;101854.0;;;23.10;31.28
48530;BME280;34927;37.302;-121.982;2023-02-08T00:53:47;101852.0;;;23.04;31.42
48530;BME280;34927;37.302;-121.982;2023-02-08T00:54:51;101853.0;;;23.06;31.41
48530;BME280;34927;37.302;-121.982;2023-02-08T00:55:57;101855.0;;;23.03;31.45
48530;BME280;34927;37.302;-121.982;2023-02-08T00:57:02;101856.0;;;23.06;31.38
48530;BME280;34927;37.302;-121.982;2023-02-08T00:58:06;101856.0;;;23.01;31.35
48530;BME280;34927;37.302;-121.982;2023-02-08T00:59:12;101855.0;;;22.99;31.38
48530;BME280;34927;37.302;-121.982;2023-02-08T01:00:17;101857.0;;;23.00;31.38
48530;BME280;34927;37.302;-121.982;2023-02-08T01:01:22;101857.0;;;22.96;31.35
48530;BME280;34927;37.302;-121.982;2023-02-08T01:02:27;101856.0;;;22.97;31.44
48530;BME280;34927;37.302;-121.982;2023-02-08T01:03:33;101856.0;;;22.99;31.37
48530;BME280;34927;37.302;-121.982;2023-02-08T01:04:37;101857.0;;;22.95;31.30
48530;BME280;34927;37.302;-121.982;2023-02-08T01:05:42;101856.0;;;22.98;31.32
48530;BME280;34927;37.302;-121.982;2023-02-08T01:06:46;101856.0;;;22.95;31.34
48530;BME280;34927;37.302;-121.982;2023-02-08T01:07:52;101862.0;;;22.91;31.36
48530;BME280;34927;37.302;-121.982;2023-02-08T01:08:56;101863.0;;;22.91;31.57
48530;BME280;34927;37.302;-121.982;2023-02-08T01:10:02;101865.0;;;22.89;31.39
48530;BME280;34927;37.302;-121.982;2023-02-08T01:11:09;101867.0;;;22.82;31.44
48530;BME280;34927;37.302;-121.982;2023-02-08T01:12:12;101870.0;;;22.83;31.68
48530;BME280;34927;37.302;-121.982;2023-02-08T01:13:17;101870.0;;;22.86;31.72
48530;BME280;34927;37.302;-121.982;2023-02-08T01:14:21;101870.0;;;22.85;31.64
48530;BME280;34927;37.302;-121.982;2023-02-08T01:15:26;101871.0;;;22.82;31.66
48530;BME280;34927;37.302;-121.982;2023-02-08T01:16:33;101872.0;;;22.83;31.67
48530;BME280;34927;37.302;-121.982;2023-02-08T01:17:37;101871.0;;;22.82;31.68
48530;BME280;34927;37.302;-121.982;2023-02-08T01:18:44;101872.0;;;22.81;31.66
48530;BME280;34927;37.302;-121.982;2023-02-08T01:19:52;101874.0;;;22.79;31.63
48530;BME280;34927;37.302;-121.982;2023-02-08T01:21:04;101874.0;;;22.78;31.67
48530;BME280;34927;37.302;-121.982;2023-02-08T01:22:06;101876.0;;;22.78;31.65
48530;BME280;34927;37.302;-121.982;2023-02-08T01:23:12;101879.0;;;22.75;31.68
48530;BME280;34927;37.302;-121.982;2023-02-08T01:24:16;101883.0;;;22.73;31.72
48530;BME280;34927;37.302;-121.982;2023-02-08T01:25:22;101886.0;;;22.73;31.69
48530;BME280;34927;37.302;-121.982;2023-02-08T01:26:27;101889.0;;;22.73;31.69
48530;BME280;34927;37.302;-121.982;2023-02-08T01:27:32;101888.0;;;22.67;31.75
48530;BME280;34927;37.302;-121.982;2023-02-08T01:28:38;101890.0;;;22.70;31.72
48530;BME280;34927;37.302;-121.982;2023-02-08T01:29:41;101887.0;;;22.69;31.72
48530;BME280;34927;37.302;-121.982;2023-02-08T01:30:46;101886.0;;;22.66;31.75
48530;BME280;34927;37.302;-121.982;2023-02-08T01:31:52;101882.0;;;22.68;31.77
48530;BME280;34927;37.302;-121.982;2023-02-08T01:32:56;101881.0;;;22.59;31.82
48530;BME280;34927;37.302;-121.982;2023-02-08T01:34:03;101884.0;;;22.56;31.85
48530;BME280;34927;37.302;-121.982;2023-02-08T01:35:07;101884.0;;;22.54;31.98
48530;BME280;34927;37.302;-121.982;2023-02-08T01:36:12;101887.0;;;22.54;31.96
48530;BME280;34927;37.302;-121.982;2023-02-08T01:37:16;101889.0;;;22.52;31.98
48530;BME280;34927;37.302;-121.982;2023-02-08T01:38:22;101892.0;;;22.51;31.99
48530;BME280;34927;37.302;-121.982;2023-02-08T01:39:27;101894.0;;;22.45;32.02
48530;BME280;34927;37.302;-121.982;2023-02-08T01:40:32;101894.0;;;22.47;32.01
48530;BME280;34927;37.302;-121.982;2023-02-08T01:41:39;101894.0;;;22.43;32.00
48530;BME280;34927;37.302;-121.982;2023-02-08T01:42:42;101895.0;;;22.42;32.03
48530;BME280;34927;37.302;-121.982;2023-02-08T01:46:17;101900.0;;;22.40;32.08
48530;BME280;34927;37.302;-121.982;2023-02-08T01:47:22;101898.0;;;22.40;32.05
48530;BME280;34927;37.302;-121.982;2023-02-08T01:48:29;101898.0;;;22.36;32.09
48530;BME280;34927;37.302;-121.982;2023-02-08T01:49:37;101900.0;;;22.36;32.12
48530;BME280;34927;37.302;-121.982;2023-02-08T01:50:47;101899.0;;;22.36;32.13
48530;BME280;34927;37.302;-121.982;2023-02-08T01:51:53;101900.0;;;22.37;32.14
48530;BME280;34927;37.302;-121.982;2023-02-08T01:52:57;101900.0;;;22.36;32.16
48530;BME280;34927;37.302;-121.982;2023-02-08T01:54:04;101900.0;;;22.30;32.20
48530;BME280;34927;37.302;-121.982;2023-02-08T01:55:16;101899.0;;;22.30;32.20
48530;BME280;34927;37.302;-121.982;2023-02-08T01:56:27;101902.0;;;22.28;32.25
48530;BME280;34927;37.302;-121.982;2023-02-08T01:57:31;101904.0;;;22.26;32.27
48530;BME280;34927;37.302;-121.982;2023-02-08T01:58:41;101901.0;;;22.29;32.27
48530;BME280;34927;37.302;-121.982;2023-02-08T01:59:49;101899.0;;;22.40;32.16
48530;BME280;34927;37.302;-121.982;2023-02-08T02:00:51;101901.0;;;22.66;31.84
48530;BME280;34927;37.302;-121.982;2023-02-08T02:01:57;101901.0;;;22.95;31.52
48530;BME280;34927;37.302;-121.982;2023-02-08T02:03:02;101897.0;;;23.21;31.10
48530;BME280;34927;37.302;-121.982;2023-02-08T02:04:06;101897.0;;;23.47;30.69
48530;BME280;34927;37.302;-121.982;2023-02-08T02:05:12;101894.0;;;23.73;30.23
48530;BME280;34927;37.302;-121.982;2023-02-08T02:06:20;101894.0;;;24.00;29.88
48530;BME280;34927;37.302;-121.982;2023-02-08T02:07:29;101893.0;;;24.25;29.52
48530;BME280;34927;37.302;-121.982;2023-02-08T02:08:32;101893.0;;;24.39;29.25
48530;BME280;34927;37.302;-121.982;2023-02-08T02:09:41;101898.0;;;24.35;29.25
48530;BME280;34927;37.302;-121.982;2023-02-08T02:10:48;101897.0;;;24.31;29.32
48530;BME280;34927;37.302;-121.982;2023-02-08T02:11:53;101896.0;;;24.20;29.47
48530;BME280;34927;37.302;-121.982;2023-02-08T02:13:02;101899.0;;;24.05;29.72
48530;BME280;34927;37.302;-121.982;2023-02-08T02:14:07;101904.0;;;23.84;29.94
48530;BME280;34927;37.302;-121.982;2023-02-08T02:15:12;101903.0;;;23.64;30.24
48530;BME280;34927;37.302;-121.982;2023-02-08T02:16:17;101904.0;;;23.62;30.22
48530;BME280;34927;37.302;-121.982;2023-02-08T02:17:22;101904.0;;;23.47;30.30
48530;BME280;34927;37.302;-121.982;2023-02-08T02:18:29;101904.0;;;23.41;30.49
48530;BME280;34927;37.302;-121.982;2023-02-08T02:19:38;101903.0;;;23.41;30.49
48530;BME280;34927;37.302;-121.982;2023-02-08T02:20:58;101907.0;;;23.57;30.36
48530;BME280;34927;37.302;-121.982;2023-02-08T02:22:24;101908.0;;;23.85;30.04
48530;BME280;34927;37.302;-121.982;2023-02-08T02:27:58;101919.0;;;24.54;28.93
48530;BME280;34927;37.302;-121.982;2023-02-08T02:32:12;101906.0;;;24.03;29.70
48530;BME280;34927;37.302;-121.982;2023-02-08T02:34:51;101914.0;;;23.75;29.69
48530;BME280;34927;37.302;-121.982;2023-02-08T02:36:00;101918.0;;;23.63;29.91
48530;BME280;34927;37.302;-121.982;2023-02-08T02:37:12;101924.0;;;23.53;30.14
48530;BME280;34927;37.302;-121.982;2023-02-08T02:38:31;101928.0;;;23.45;30.22
48530;BME280;34927;37.302;-121.982;2023-02-08T02:39:49;101936.0;;;23.34;30.31
48530;BME280;34927;37.302;-121.982;2023-02-08T02:41:06;101938.0;;;23.30;30.37
48530;BME280;34927;37.302;-121.982;2023-02-08T02:42:21;101942.0;;;23.35;30.53
48530;BME280;34927;37.302;-121.982;2023-02-08T02:43:38;101943.0;;;23.54;30.39
48530;BME280;34927;37.302;-121.982;2023-02-08T02:44:53;101945.0;;;23.84;30.08
48530;BME280;34927;37.302;-121.982;2023-02-08T02:46:06;101944.0;;;24.11;29.69
48530;BME280;34927;37.302;-121.982;2023-02-08T02:47:18;101943.0;;;24.38;29.34
48530;BME280;34927;37.302;-121.982;2023-02-08T02:48:31;101941.0;;;24.47;29.08
48530;BME280;34927;37.302;-121.982;2023-02-08T02:49:47;101945.0;;;24.37;29.17
48530;BME280;34927;37.302;-121.982;2023-02-08T02:50:55;101952.0;;;24.43;29.11
48530;BME280;34927;37.302;-121.982;2023-02-08T02:52:05;101960.0;;;24.19;29.53
48530;BME280;34927;37.302;-121.982;2023-02-08T02:53:16;101964.0;;;23.97;29.79
48530;BME280;34927;37.302;-121.982;2023-02-08T02:54:25;101969.0;;;23.87;29.66
48530;BME280;34927;37.302;-121.982;2023-02-08T02:55:35;101966.0;;;23.78;29.79
48530;BME280;34927;37.302;-121.982;2023-02-08T02:56:44;101967.0;;;23.66;30.05
48530;BME280;34927;37.302;-121.982;2023-02-08T02:57:53;101966.0;;;23.50;30.16
48530;BME280;34927;37.302;-121.982;2023-02-08T02:59:05;101967.0;;;23.36;30.34
48530;BME280;34927;37.302;-121.982;2023-02-08T03:00:19;101971.0;;;23.26;30.44
48530;BME280;34927;37.302;-121.982;2023-02-08T03:01:27;101973.0;;;23.19;30.56
48530;BME280;34927;37.302;-121.982;2023-02-08T03:02:31;101970.0;;;23.08;30.71
48530;BME280;34927;37.302;-121.982;2023-02-08T03:03:37;101971.0;;;23.20;30.77
48530;BME280;34927;37.302;-121.982;2023-02-08T03:04:53;101968.0;;;23.39;30.64
48530;BME280;34927;37.302;-121.982;2023-02-08T03:06:01;101970.0;;;23.64;30.45
48530;BME280;34927;37.302;-121.982;2023-02-08T03:07:12;101972.0;;;23.93;30.19
48530;BME280;34927;37.302;-121.982;2023-02-08T03:08:34;101973.0;;;24.24;29.82
48530;BME280;34927;37.302;-121.982;2023-02-08T03:09:53;101974.0;;;24.42;29.56
48530;BME280;34927;37.302;-121.982;2023-02-08T03:11:13;101982.0;;;24.32;29.52
48530;BME280;34927;37.302;-121.982;2023-02-08T03:12:29;101980.0;;;24.26;29.64
48530;BME280;34927;37.302;-121.982;2023-02-08T03:13:50;101979.0;;;24.03;29.99
48530;BME280;34927;37.302;-121.982;2023-02-08T03:15:10;101979.0;;;23.79;30.25
48530;BME280;34927;37.302;-121.982;2023-02-08T03:16:18;101980.0;;;23.73;30.28
48530;BME280;34927;37.302;-121.982;2023-02-08T03:17:35;101980.0;;;23.63;30.26
48530;BME280;34927;37.302;-121.982;2023-02-08T03:18:50;101983.0;;;23.39;30.45
48530;BME280;34927;37.302;-121.982;2023-02-08T03:20:04;101982.0;;;23.26;30.71
48530;BME280;34927;37.302;-121.982;2023-02-08T03:21:16;101981.0;;;23.19;30.83
48530;BME280;34927;37.302;-121.982;2023-02-08T03:22:28;101981.0;;;23.14;30.93
48530;BME280;34927;37.302;-121.982;2023-02-08T03:23:43;101979.0;;;23.11;30.95
48530;BME280;34927;37.302;-121.982;2023-02-08T03:24:52;101979.0;;;23.09;30.91
48530;BME280;34927;37.302;-121.982;2023-02-08T03:26:03;101982.0;;;23.22;31.13
48530;BME280;34927;37.302;-121.982;2023-02-08T03:27:11;101982.0;;;23.49;30.93
48530;BME280;34927;37.302;-121.982;2023-02-08T03:28:23;101984.0;;;23.78;30.57
48530;BME280;34927;37.302;-121.982;2023-02-08T03:29:41;101983.0;;;24.09;30.18
48530;BME280;34927;37.302;-121.982;2023-02-08T03:30:52;101982.0;;;24.43;29.69
48530;BME280;34927;37.302;-121.982;2023-02-08T03:32:05;101982.0;;;24.53;29.42
48530;BME280;34927;37.302;-121.982;2023-02-08T03:33:14;101983.0;;;24.43;29.50
48530;BME280;34927;37.302;-121.982;2023-02-08T03:34:27;101987.0;;;24.36;29.50
48530;BME280;34927;37.302;-121.982;2023-02-08T03:35:40;101989.0;;;24.16;29.83
48530;BME280;34927;37.302;-121.982;2023-02-08T03:36:49;101989.0;;;24.02;29.96
48530;BME280;34927;37.302;-121.982;2023-02-08T03:37:59;101988.0;;;23.83;30.09
48530;BME280;34927;37.302;-121.982;2023-02-08T03:39:10;101991.0;;;23.73;30.28
48530;BME280;34927;37.302;-121.982;2023-02-08T03:40:20;101996.0;;;23.68;30.23
48530;BME280;34927;37.302;-121.982;2023-02-08T03:41:31;101999.0;;;23.62;30.30
48530;BME280;34927;37.302;-121.982;2023-02-08T03:42:38;102002.0;;;23.51;30.44
48530;BME280;34927;37.302;-121.982;2023-02-08T03:43:44;102002.0;;;23.39;30.58
48530;BME280;34927;37.302;-121.982;2023-02-08T03:44:55;102004.0;;;23.28;30.75
48530;BME280;34927;37.302;-121.982;2023-02-08T03:46:06;102003.0;;;23.25;30.74
48530;BME280;34927;37.302;-121.982;2023-02-08T03:47:17;102000.0;;;23.13;30.82
48530;BME280;34927;37.302;-121.982;2023-02-08T03:48:23;102002.0;;;23.11;30.85
48530;BME280;34927;37.302;-121.982;2023-02-08T03:49:30;102002.0;;;23.13;31.05
48530;BME280;34927;37.302;-121.982;2023-02-08T03:50:38;102004.0;;;23.38;31.00
48530;BME280;34927;37.302;-121.982;2023-02-08T03:51:42;102005.0;;;23.63;30.79
48530;BME280;34927;37.302;-121.982;2023-02-08T03:52:48;102004.0;;;23.88;30.52
48530;BME280;34927;37.302;-121.982;2023-02-08T03:53:53;102007.0;;;24.21;30.16
48530;BME280;34927;37.302;-121.982;2023-02-08T03:55:05;102006.0;;;24.42;29.92
48530;BME280;34927;37.302;-121.982;2023-02-08T03:56:16;102005.0;;;24.39;30.09
48530;BME280;34927;37.302;-121.982;2023-02-08T03:57:23;102007.0;;;24.37;30.24
48530;BME280;34927;37.302;-121.982;2023-02-08T03:58:32;102008.0;;;24.09;30.71
48530;BME280;34927;37.302;-121.982;2023-02-08T03:59:40;102004.0;;;23.78;31.16
48530;BME280;34927;37.302;-121.982;2023-02-08T04:00:50;102002.0;;;23.77;31.07
48530;BME280;34927;37.302;-121.982;2023-02-08T04:01:59;102004.0;;;23.67;31.09
48530;BME280;34927;37.302;-121.982;2023-02-08T04:03:12;102010.0;;;23.46;31.30
48530;BME280;34927;37.302;-121.982;2023-02-08T04:04:18;102012.0;;;23.51;31.21
48530;BME280;34927;37.302;-121.982;2023-02-08T04:05:22;102013.0;;;23.39;31.49
48530;BME280;34927;37.302;-121.982;2023-02-08T04:06:27;102014.0;;;23.23;31.81
48530;BME280;34927;37.302;-121.982;2023-02-08T04:07:32;102017.0;;;23.16;31.87
48530;BME280;34927;37.302;-121.982;2023-02-08T04:08:37;102017.0;;;23.06;32.06
48530;BME280;34927;37.302;-121.982;2023-02-08T04:09:42;102018.0;;;22.93;32.40
48530;BME280;34927;37.302;-121.982;2023-02-08T04:10:47;102016.0;;;22.92;32.47
48530;BME280;34927;37.302;-121.982;2023-02-08T04:11:51;102014.0;;;23.07;32.03
48530;BME280;34927;37.302;-121.982;2023-02-08T04:12:57;102014.0;;;22.88;32.58
48530;BME280;34927;37.302;-121.982;2023-02-08T04:14:02;102014.0;;;22.83;32.58
48530;BME280;34927;37.302;-121.982;2023-02-08T04:15:08;102013.0;;;22.82;32.53
48530;BME280;34927;37.302;-121.982;2023-02-08T04:16:12;102015.0;;;22.78;32.56
48530;BME280;34927;37.302;-121.982;2023-02-08T04:17:16;102014.0;;;22.63;32.89
48530;BME280;34927;37.302;-121.982;2023-02-08T04:18:22;102014.0;;;22.91;32.45
48530;BME280;34927;37.302;-121.982;2023-02-08T04:19:26;102013.0;;;23.16;32.24
48530;BME280;34927;37.302;-121.982;2023-02-08T04:20:32;102014.0;;;23.47;31.81
48530;BME280;34927;37.302;-121.982;2023-02-08T04:21:37;102014.0;;;23.76;31.33
48530;BME280;34927;37.302;-121.982;2023-02-08T04:22:41;102015.0;;;24.05;30.93
48530;BME280;34927;37.302;-121.982;2023-02-08T04:23:47;102017.0;;;24.22;30.58
48530;BME280;34927;37.302;-121.982;2023-02-08T04:24:51;102020.0;;;24.19;30.75
48530;BME280;34927;37.302;-121.982;2023-02-08T04:25:56;102020.0;;;24.21;30.59
48530;BME280;34927;37.302;-121.982;2023-02-08T04:27:01;102023.0;;;23.91;31.16
48530;BME280;34927;37.302;-121.982;2023-02-08T04:28:06;102021.0;;;23.69;31.30
48530;BME280;34927;37.302;-121.982;2023-02-08T04:29:12;102027.0;;;23.55;31.41
48530;BME280;34927;37.302;-121.982;2023-02-08T04:30:17;102028.0;;;23.45;31.53
48530;BME280;34927;37.302;-121.982;2023-02-08T04:31:22;102029.0;;;23.44;31.52
48530;BME280;34927;37.302;-121.982;2023-02-08T04:32:27;102026.0;;;23.39;31.52
48530;BME280;34927;37.302;-121.982;2023-02-08T04:33:32;102022.0;;;23.01;32.12
48530;BME280;34927;37.302;-121.982;2023-02-08T04:34:37;102022.0;;;23.27;31.90
48530;BME280;34927;37.302;-121.982;2023-02-08T04:35:42;102022.0;;;23.11;32.03
48530;BME280;34927;37.302;-121.982;2023-02-08T04:36:47;102023.0;;;22.99;32.15
48530;BME280;34927;37.302;-121.982;2023-02-08T04:37:51;102024.0;;;22.91;32.11
48530;BME280;34927;37.302;-121.982;2023-02-08T04:38:57;102024.0;;;22.86;32.16
48530;BME280;34927;37.302;-121.982;2023-02-08T04:40:02;102024.0;;;22.77;32.37
48530;BME280;34927;37.302;-121.982;2023-02-08T04:41:06;102022.0;;;22.63;32.53
48530;BME280;34927;37.302;-121.982;2023-02-08T04:42:12;102019.0;;;22.64;32.50
48530;BME280;34927;37.302;-121.982;2023-02-08T04:43:17;102020.0;;;22.76;32.31
48530;BME280;34927;37.302;-121.982;2023-02-08T04:44:22;102022.0;;;23.02;32.06
48530;BME280;34927;37.302;-121.982;2023-02-08T04:45:27;102023.0;;;23.32;31.72
48530;BME280;34927;37.302;-121.982;2023-02-08T04:46:31;102027.0;;;23.58;31.41
48530;BME280;34927;37.302;-121.982;2023-02-08T04:47:37;102025.0;;;23.89;31.09
48530;BME280;34927;37.302;-121.982;2023-02-08T04:48:41;102024.0;;;24.08;30.85
48530;BME280;34927;37.302;-121.982;2023-02-08T04:49:47;102024.0;;;24.05;30.83
48530;BME280;34927;37.302;-121.982;2023-02-08T04:50:55;102026.0;;;23.97;31.00
48530;BME280;34927;37.302;-121.982;2023-02-08T04:52:02;102028.0;;;23.76;31.38
48530;BME280;34927;37.302;-121.982;2023-02-08T04:53:07;102036.0;;;23.62;31.39
48530;BME280;34927;37.302;-121.982;2023-02-08T04:54:11;102038.0;;;23.53;31.48
48530;BME280;34927;37.302;-121.982;2023-02-08T04:55:17;102037.0;;;23.33;31.67
48530;BME280;34927;37.302;-121.982;2023-02-08T04:56:21;102034.0;;;23.25;31.86
48530;BME280;34927;37.302;-121.982;2023-02-08T04:57:27;102030.0;;;23.05;32.15
48530;BME280;34927;37.302;-121.982;2023-02-08T04:58:32;102028.0;;;23.09;31.97
48530;BME280;34927;37.302;-121.982;2023-02-08T04:59:36;102029.0;;;22.95;32.26
48530;BME280;34927;37.302;-121.982;2023-02-08T05:00:42;102029.0;;;22.88;32.30
48530;BME280;34927;37.302;-121.982;2023-02-08T05:01:46;102033.0;;;22.86;32.34
48530;BME280;34927;37.302;-121.982;2023-02-08T05:02:52;102032.0;;;22.87;32.24
48530;BME280;34927;37.302;-121.982;2023-02-08T05:03:57;102030.0;;;22.74;32.42
48530;BME280;34927;37.302;-121.982;2023-02-08T05:05:02;102029.0;;;22.80;32.27
48530;BME280;34927;37.302;-121.982;2023-02-08T05:06:07;102028.0;;;22.73;32.45
48530;BME280;34927;37.302;-121.982;2023-02-08T05:07:12;102030.0;;;22.63;33.11
48530;BME280;34927;37.302;-121.982;2023-02-08T05:08:17;102029.0;;;22.66;32.85
48530;BME280;34927;37.302;-121.982;2023-02-08T05:09:22;102031.0;;;22.58;33.22
48530;BME280;34927;37.302;-121.982;2023-02-08T05:10:26;102031.0;;;22.90;33.11
48530;BME280;34927;37.302;-121.982;2023-02-08T05:11:32;102031.0;;;23.20;33.01
48530;BME280;34927;37.302;-121.982;2023-02-08T05:12:37;102031.0;;;23.47;32.80
48530;BME280;34927;37.302;-121.982;2023-02-08T05:13:41;102026.0;;;23.75;32.38
48530;BME280;34927;37.302;-121.982;2023-02-08T05:14:47;102023.0;;;23.87;32.13
48530;BME280;34927;37.302;-121.982;2023-02-08T05:15:51;102023.0;;;23.78;32.14
48530;BME280;34927;37.302;-121.982;2023-02-08T05:16:56;102022.0;;;23.69;32.24
48530;BME280;34927;37.302;-121.982;2023-02-08T05:18:02;102024.0;;;23.51;32.48
48530;BME280;34927;37.302;-121.982;2023-02-08T05:19:06;102023.0;;;23.44;32.55
48530;BME280;34927;37.302;-121.982;2023-02-08T05:20:12;102022.0;;;23.46;32.41
48530;BME280;34927;37.302;-121.982;2023-02-08T05:21:17;102019.0;;;23.28;32.75
48530;BME280;34927;37.302;-121.982;2023-02-08T05:22:21;102019.0;;;23.13;33.07
48530;BME280;34927;37.302;-121.982;2023-02-08T05:23:28;102017.0;;;22.99;33.34
48530;BME280;34927;37.302;-121.982;2023-02-08T05:25:37;102019.0;;;22.77;33.77
48530;BME280;34927;37.302;-121.982;2023-02-08T05:26:41;102020.0;;;22.82;33.88
48530;BME280;34927;37.302;-121.982;2023-02-08T05:27:47;102022.0;;;22.75;33.85
48530;BME280;34927;37.302;-121.982;2023-02-08T05:28:52;102024.0;;;22.69;33.81
48530;BME280;34927;37.302;-121.982;2023-02-08T05:29:57;102023.0;;;22.60;34.06
48530;BME280;34927;37.302;-121.982;2023-02-08T05:31:09;102022.0;;;22.63;33.91
48530;BME280;34927;37.302;-121.982;2023-02-08T05:32:12;102022.0;;;22.53;34.04
48530;BME280;34927;37.302;-121.982;2023-02-08T05:33:17;102024.0;;;22.52;34.01
48530;BME280;34927;37.302;-121.982;2023-02-08T05:34:21;102023.0;;;22.50;33.99
48530;BME280;34927;37.302;-121.982;2023-02-08T05:35:26;102023.0;;;22.55;33.91
48530;BME280;34927;37.302;-121.982;2023-02-08T05:36:32;102026.0;;;22.87;33.57
48530;BME280;34927;37.302;-121.982;2023-02-08T05:37:37;102024.0;;;23.10;33.20
48530;BME280;34927;37.302;-121.982;2023-02-08T05:38:42;102025.0;;;23.40;32.76
48530;BME280;34927;37.302;-121.982;2023-02-08T05:39:46;102023.0;;;23.71;32.20
48530;BME280;34927;37.302;-121.982;2023-02-08T05:40:51;102021.0;;;23.96;31.74
48530;BME280;34927;37.302;-121.982;2023-02-08T05:41:57;102022.0;;;23.95;31.67
48530;BME280;34927;37.302;-121.982;2023-02-08T05:43:01;102023.0;;;23.94;31.62
48530;BME280;34927;37.302;-121.982;2023-02-08T05:44:06;102023.0;;;23.74;31.96
48530;BME280;34927;37.302;-121.982;2023-02-08T05:45:12;102020.0;;;23.69;32.07
48530;BME280;34927;37.302;-121.982;2023-02-08T05:46:17;102016.0;;;23.48;32.31
48530;BME280;34927;37.302;-121.982;2023-02-08T05:47:22;102017.0;;;23.22;32.69
48530;BME280;34927;37.302;-121.982;2023-02-08T05:48:27;102015.0;;;23.06;32.93
48530;BME280;34927;37.302;-121.982;2023-02-08T05:49:32;102014.0;;;22.85;33.41
48530;BME280;34927;37.302;-121.982;2023-02-08T05:50:36;102015.0;;;22.72;33.70
48530;BME280;34927;37.302;-121.982;2023-02-08T05:51:42;102017.0;;;22.75;33.61
48530;BME280;34927;37.302;-121.982;2023-02-08T05:52:46;102017.0;;;22.65;33.70
48530;BME280;34927;37.302;-121.982;2023-02-08T05:53:52;102015.0;;;22.69;33.67